sensor_id;sensor_type;location;lat;lon;timestamp;P1;durP1;ratioP1;P2;durP2;ratioP2
16153;SDS011;8182;55.648;13.208;2024-03-29T00:00:45;4.30;;;3.30;;
16153;SDS011;8182;55.648;13.208;2024-03-29T00:03:11;4.27;;;2.30;;
16153;SDS011;8182;55.648;13.208;2024-03-29T00:05:37;5.57;;;2.47;;
16153;SDS011;8182;55.648;13.208;2024-03-29T00:08:04;3.20;;;1.77;;
16153;SDS011;8182;55.648;13.208;2024-03-29T00:10:31;3.33;;;1.80;;
16153;SDS011;8182;55.648;13.208;2024-03-29T00:12:59;2.97;;;1.40;;
16153;SDS011;8182;55.648;13.208;2024-03-29T00:15:24;5.30;;;1.40;;
16153;SDS011;8182;55.648;13.208;2024-03-29T00:17:50;6.43;;;2.47;;
16153;SDS011;8182;55.648;13.208;2024-03-29T00:20:16;2.97;;;1.20;;
16153;SDS011;8182;55.648;13.208;2024-03-29T00:22:42;4.43;;;1.47;;
16153;SDS011;8182;55.648;13.208;2024-03-29T00:25:08;4.57;;;1.40;;
16153;SDS011;8182;55.648;13.208;2024-03-29T00:27:36;4.63;;;1.30;;
16153;SDS011;8182;55.648;13.208;2024-03-29T00:30:02;4.23;;;1.40;;
16153;SDS011;8182;55.648;13.208;2024-03-29T00:32:28;2.57;;;1.10;;
16153;SDS011;8182;55.648;13.208;2024-03-29T00:34:54;3.90;;;1.50;;
16153;SDS011;8182;55.648;13.208;2024-03-29T00:37:20;3.17;;;1.30;;
16153;SDS011;8182;55.648;13.208;2024-03-29T00:39:46;5.13;;;1.37;;
16153;SDS011;8182;55.648;13.208;2024-03-29T00:42:12;3.53;;;1.40;;
16153;SDS011;8182;55.648;13.208;2024-03-29T00:44:39;4.20;;;1.43;;
16153;SDS011;8182;55.648;13.208;2024-03-29T00:47:05;6.57;;;1.37;;
16153;SDS011;8182;55.648;13.208;2024-03-29T00:49:31;4.53;;;1.47;;
16153;SDS011;8182;55.648;13.208;2024-03-29T00:51:57;5.30;;;1.33;;
16153;SDS011;8182;55.648;13.208;2024-03-29T00:54:23;5.00;;;1.37;;
16153;SDS011;8182;55.648;13.208;2024-03-29T00:56:49;5.73;;;1.40;;
16153;SDS011;8182;55.648;13.208;2024-03-29T00:59:15;4.93;;;1.50;;
16153;SDS011;8182;55.648;13.208;2024-03-29T01:01:42;5.93;;;1.60;;
16153;SDS011;8182;55.648;13.208;2024-03-29T01:04:08;3.90;;;1.60;;
16153;SDS011;8182;55.648;13.208;2024-03-29T01:06:34;4.30;;;1.50;;
16153;SDS011;8182;55.648;13.208;2024-03-29T01:09:00;2.23;;;1.30;;
16153;SDS011;8182;55.648;13.208;2024-03-29T01:11:27;4.90;;;1.47;;
16153;SDS011;8182;55.648;13.208;2024-03-29T01:13:53;3.40;;;1.43;;
16153;SDS011;8182;55.648;13.208;2024-03-29T01:16:18;3.80;;;1.70;;
16153;SDS011;8182;55.648;13.208;2024-03-29T01:18:46;6.83;;;1.93;;
16153;SDS011;8182;55.648;13.208;2024-03-29T01:21:12;4.30;;;1.50;;
16153;SDS011;8182;55.648;13.208;2024-03-29T01:23:38;5.87;;;1.50;;
16153;SDS011;8182;55.648;13.208;2024-03-29T01:26:04;3.60;;;1.57;;
16153;SDS011;8182;55.648;13.208;2024-03-29T01:28:30;3.20;;;1.60;;
16153;SDS011;8182;55.648;13.208;2024-03-29T01:30:55;4.10;;;1.60;;
16153;SDS011;8182;55.648;13.208;2024-03-29T01:33:21;4.27;;;1.40;;
16153;SDS011;8182;55.648;13.208;2024-03-29T01:35:49;4.80;;;1.83;;
16153;SDS011;8182;55.648;13.208;2024-03-29T01:38:15;4.43;;;1.90;;
16153;SDS011;8182;55.648;13.208;2024-03-29T01:40:41;4.37;;;2.00;;
16153;SDS011;8182;55.648;13.208;2024-03-29T01:43:07;5.47;;;2.27;;
16153;SDS011;8182;55.648;13.208;2024-03-29T01:45:35;7.97;;;2.73;;
16153;SDS011;8182;55.648;13.208;2024-03-29T01:48:04;5.37;;;2.07;;
16153;SDS011;8182;55.648;13.208;2024-03-29T01:50:32;5.13;;;1.73;;
16153;SDS011;8182;55.648;13.208;2024-03-29T01:53:01;7.90;;;2.30;;
16153;SDS011;8182;55.648;13.208;2024-03-29T01:55:28;6.60;;;2.30;;
16153;SDS011;8182;55.648;13.208;2024-03-29T01:57:55;7.33;;;2.17;;
16153;SDS011;8182;55.648;13.208;2024-03-29T02:00:24;4.53;;;2.20;;
16153;SDS011;8182;55.648;13.208;2024-03-29T02:02:52;7.53;;;2.47;;
16153;SDS011;8182;55.648;13.208;2024-03-29T02:05:19;6.43;;;2.70;;
16153;SDS011;8182;55.648;13.208;2024-03-29T02:07:46;5.47;;;2.40;;
16153;SDS011;8182;55.648;13.208;2024-03-29T02:10:15;5.87;;;2.33;;
16153;SDS011;8182;55.648;13.208;2024-03-29T02:12:42;3.73;;;2.30;;
16153;SDS011;8182;55.648;13.208;2024-03-29T02:15:13;6.50;;;2.50;;
16153;SDS011;8182;55.648;13.208;2024-03-29T02:17:41;6.30;;;2.60;;
16153;SDS011;8182;55.648;13.208;2024-03-29T02:20:09;5.03;;;2.53;;
16153;SDS011;8182;55.648;13.208;2024-03-29T02:22:36;6.17;;;3.00;;
16153;SDS011;8182;55.648;13.208;2024-03-29T02:25:11;7.50;;;3.10;;
16153;SDS011;8182;55.648;13.208;2024-03-29T02:27:38;6.50;;;2.90;;
16153;SDS011;8182;55.648;13.208;2024-03-29T02:30:06;6.53;;;2.60;;
16153;SDS011;8182;55.648;13.208;2024-03-29T02:32:33;4.77;;;2.80;;
16153;SDS011;8182;55.648;13.208;2024-03-29T02:35:00;8.00;;;2.97;;
16153;SDS011;8182;55.648;13.208;2024-03-29T02:37:27;5.87;;;3.10;;
16153;SDS011;8182;55.648;13.208;2024-03-29T02:39:54;7.03;;;3.27;;
16153;SDS011;8182;55.648;13.208;2024-03-29T02:42:22;4.63;;;3.17;;
16153;SDS011;8182;55.648;13.208;2024-03-29T02:44:49;5.57;;;3.30;;
16153;SDS011;8182;55.648;13.208;2024-03-29T02:47:16;8.47;;;4.50;;
16153;SDS011;8182;55.648;13.208;2024-03-29T02:49:42;8.23;;;4.90;;
16153;SDS011;8182;55.648;13.208;2024-03-29T02:52:08;9.93;;;5.47;;
16153;SDS011;8182;55.648;13.208;2024-03-29T02:54:35;9.07;;;5.33;;
16153;SDS011;8182;55.648;13.208;2024-03-29T02:57:01;12.57;;;6.40;;
16153;SDS011;8182;55.648;13.208;2024-03-29T02:59:29;8.60;;;6.23;;
16153;SDS011;8182;55.648;13.208;2024-03-29T03:01:55;12.17;;;6.60;;
16153;SDS011;8182;55.648;13.208;2024-03-29T03:04:22;12.67;;;6.87;;
16153;SDS011;8182;55.648;13.208;2024-03-29T03:06:48;12.13;;;6.80;;
16153;SDS011;8182;55.648;13.208;2024-03-29T03:09:15;12.80;;;7.10;;
16153;SDS011;8182;55.648;13.208;2024-03-29T03:11:59;11.37;;;7.20;;
16153;SDS011;8182;55.648;13.208;2024-03-29T03:14:26;11.47;;;7.30;;
16153;SDS011;8182;55.648;13.208;2024-03-29T03:16:54;10.73;;;7.37;;
16153;SDS011;8182;55.648;13.208;2024-03-29T03:19:21;12.87;;;7.87;;
16153;SDS011;8182;55.648;13.208;2024-03-29T03:21:48;10.50;;;7.77;;
16153;SDS011;8182;55.648;13.208;2024-03-29T03:24:16;11.90;;;8.40;;
16153;SDS011;8182;55.648;13.208;2024-03-29T03:26:42;14.90;;;9.70;;
16153;SDS011;8182;55.648;13.208;2024-03-29T03:29:09;11.43;;;8.83;;
16153;SDS011;8182;55.648;13.208;2024-03-29T03:31:35;11.87;;;8.87;;
16153;SDS011;8182;55.648;13.208;2024-03-29T03:34:03;12.13;;;9.00;;
16153;SDS011;8182;55.648;13.208;2024-03-29T03:36:29;12.07;;;8.97;;
16153;SDS011;8182;55.648;13.208;2024-03-29T03:38:56;14.60;;;9.53;;
16153;SDS011;8182;55.648;13.208;2024-03-29T03:41:23;13.10;;;9.73;;
16153;SDS011;8182;55.648;13.208;2024-03-29T03:43:49;12.73;;;9.27;;
16153;SDS011;8182;55.648;13.208;2024-03-29T03:46:16;13.83;;;9.77;;
16153;SDS011;8182;55.648;13.208;2024-03-29T03:48:41;16.93;;;10.87;;
16153;SDS011;8182;55.648;13.208;2024-03-29T03:51:09;12.60;;;9.77;;
16153;SDS011;8182;55.648;13.208;2024-03-29T03:53:35;16.30;;;10.07;;
16153;SDS011;8182;55.648;13.208;2024-03-29T03:56:02;13.90;;;10.07;;
16153;SDS011;8182;55.648;13.208;2024-03-29T03:58:28;12.97;;;9.80;;
16153;SDS011;8182;55.648;13.208;2024-03-29T04:00:55;13.83;;;10.43;;
16153;SDS011;8182;55.648;13.208;2024-03-29T04:03:21;19.07;;;11.27;;
16153;SDS011;8182;55.648;13.208;2024-03-29T04:05:48;14.50;;;10.10;;
16153;SDS011;8182;55.648;13.208;2024-03-29T04:08:15;12.70;;;9.10;;
16153;SDS011;8182;55.648;13.208;2024-03-29T04:10:44;14.53;;;10.03;;
16153;SDS011;8182;55.648;13.208;2024-03-29T04:13:10;14.70;;;10.50;;
16153;SDS011;8182;55.648;13.208;2024-03-29T04:15:36;14.00;;;10.93;;
16153;SDS011;8182;55.648;13.208;2024-03-29T04:18:02;16.77;;;11.07;;
16153;SDS011;8182;55.648;13.208;2024-03-29T04:20:29;17.60;;;11.00;;
16153;SDS011;8182;55.648;13.208;2024-03-29T04:22:55;14.57;;;11.23;;
16153;SDS011;8182;55.648;13.208;2024-03-29T04:25:23;17.53;;;11.57;;
16153;SDS011;8182;55.648;13.208;2024-03-29T04:27:49;19.20;;;11.67;;
16153;SDS011;8182;55.648;13.208;2024-03-29T04:30:16;15.00;;;11.20;;
16153;SDS011;8182;55.648;13.208;2024-03-29T04:32:42;16.83;;;11.53;;
16153;SDS011;8182;55.648;13.208;2024-03-29T04:35:09;18.07;;;12.27;;
16153;SDS011;8182;55.648;13.208;2024-03-29T04:37:35;17.30;;;11.10;;
16153;SDS011;8182;55.648;13.208;2024-03-29T04:40:02;17.13;;;10.93;;
16153;SDS011;8182;55.648;13.208;2024-03-29T04:42:30;16.90;;;12.17;;
16153;SDS011;8182;55.648;13.208;2024-03-29T04:44:57;15.10;;;11.07;;
16153;SDS011;8182;55.648;13.208;2024-03-29T04:47:26;16.23;;;11.23;;
16153;SDS011;8182;55.648;13.208;2024-03-29T04:49:52;15.20;;;11.33;;
16153;SDS011;8182;55.648;13.208;2024-03-29T04:52:19;16.50;;;11.03;;
16153;SDS011;8182;55.648;13.208;2024-03-29T04:54:47;16.43;;;11.13;;
16153;SDS011;8182;55.648;13.208;2024-03-29T04:57:14;16.27;;;11.27;;
16153;SDS011;8182;55.648;13.208;2024-03-29T04:59:43;16.17;;;10.97;;
16153;SDS011;8182;55.648;13.208;2024-03-29T05:02:09;16.07;;;10.70;;
16153;SDS011;8182;55.648;13.208;2024-03-29T05:04:36;17.03;;;11.10;;
16153;SDS011;8182;55.648;13.208;2024-03-29T05:07:03;12.77;;;10.07;;
16153;SDS011;8182;55.648;13.208;2024-03-29T05:09:30;15.33;;;10.53;;
16153;SDS011;8182;55.648;13.208;2024-03-29T05:11:57;14.37;;;10.50;;
16153;SDS011;8182;55.648;13.208;2024-03-29T05:14:23;12.40;;;9.50;;
16153;SDS011;8182;55.648;13.208;2024-03-29T05:16:52;15.63;;;9.47;;
16153;SDS011;8182;55.648;13.208;2024-03-29T05:19:19;13.03;;;9.40;;
16153;SDS011;8182;55.648;13.208;2024-03-29T05:21:45;13.80;;;8.77;;
16153;SDS011;8182;55.648;13.208;2024-03-29T05:24:12;12.30;;;9.33;;
16153;SDS011;8182;55.648;13.208;2024-03-29T05:26:39;12.60;;;8.20;;
16153;SDS011;8182;55.648;13.208;2024-03-29T05:29:06;11.73;;;8.37;;
16153;SDS011;8182;55.648;13.208;2024-03-29T05:31:32;11.87;;;7.37;;
16153;SDS011;8182;55.648;13.208;2024-03-29T05:34:01;11.83;;;7.77;;
16153;SDS011;8182;55.648;13.208;2024-03-29T05:36:28;11.13;;;7.43;;
16153;SDS011;8182;55.648;13.208;2024-03-29T05:38:54;10.90;;;7.10;;
16153;SDS011;8182;55.648;13.208;2024-03-29T05:41:21;14.13;;;6.73;;
16153;SDS011;8182;55.648;13.208;2024-03-29T05:43:48;8.57;;;5.73;;
16153;SDS011;8182;55.648;13.208;2024-03-29T05:46:15;9.40;;;6.30;;
16153;SDS011;8182;55.648;13.208;2024-03-29T05:48:43;7.07;;;5.57;;
16153;SDS011;8182;55.648;13.208;2024-03-29T05:51:11;8.47;;;5.23;;
16153;SDS011;8182;55.648;13.208;2024-03-29T05:53:38;11.40;;;5.80;;
16153;SDS011;8182;55.648;13.208;2024-03-29T05:56:05;7.40;;;5.27;;
16153;SDS011;8182;55.648;13.208;2024-03-29T05:58:33;7.30;;;5.37;;
16153;SDS011;8182;55.648;13.208;2024-03-29T06:01:00;7.50;;;4.73;;
16153;SDS011;8182;55.648;13.208;2024-03-29T06:03:27;6.23;;;4.80;;
16153;SDS011;8182;55.648;13.208;2024-03-29T06:05:54;6.93;;;4.20;;
16153;SDS011;8182;55.648;13.208;2024-03-29T06:08:22;6.53;;;4.67;;
16153;SDS011;8182;55.648;13.208;2024-03-29T06:10:52;7.30;;;4.00;;
16153;SDS011;8182;55.648;13.208;2024-03-29T06:13:19;7.00;;;4.33;;
16153;SDS011;8182;55.648;13.208;2024-03-29T06:16:13;5.17;;;3.67;;
16153;SDS011;8182;55.648;13.208;2024-03-29T06:19:13;5.10;;;3.70;;
16153;SDS011;8182;55.648;13.208;2024-03-29T06:21:41;5.17;;;3.47;;
16153;SDS011;8182;55.648;13.208;2024-03-29T06:24:10;4.93;;;3.70;;
16153;SDS011;8182;55.648;13.208;2024-03-29T06:26:39;6.13;;;3.77;;
16153;SDS011;8182;55.648;13.208;2024-03-29T06:29:06;8.33;;;3.77;;
16153;SDS011;8182;55.648;13.208;2024-03-29T06:31:34;5.10;;;3.50;;
16153;SDS011;8182;55.648;13.208;2024-03-29T06:34:01;4.37;;;3.37;;
16153;SDS011;8182;55.648;13.208;2024-03-29T06:36:28;3.77;;;3.20;;
16153;SDS011;8182;55.648;13.208;2024-03-29T06:38:56;5.73;;;3.70;;
16153;SDS011;8182;55.648;13.208;2024-03-29T06:41:24;4.33;;;3.50;;
16153;SDS011;8182;55.648;13.208;2024-03-29T06:43:51;6.07;;;3.50;;
16153;SDS011;8182;55.648;13.208;2024-03-29T06:46:18;6.23;;;3.30;;
16153;SDS011;8182;55.648;13.208;2024-03-29T06:48:44;5.57;;;3.20;;
16153;SDS011;8182;55.648;13.208;2024-03-29T06:51:11;5.87;;;2.97;;
16153;SDS011;8182;55.648;13.208;2024-03-29T06:53:38;5.70;;;2.80;;
16153;SDS011;8182;55.648;13.208;2024-03-29T06:56:05;4.77;;;2.53;;
16153;SDS011;8182;55.648;13.208;2024-03-29T06:58:34;6.43;;;2.80;;
16153;SDS011;8182;55.648;13.208;2024-03-29T07:01:01;3.90;;;2.57;;
16153;SDS011;8182;55.648;13.208;2024-03-29T07:03:27;4.77;;;2.63;;
16153;SDS011;8182;55.648;13.208;2024-03-29T07:05:54;4.90;;;2.50;;
16153;SDS011;8182;55.648;13.208;2024-03-29T07:08:21;5.27;;;2.40;;
16153;SDS011;8182;55.648;13.208;2024-03-29T07:10:56;4.17;;;2.43;;
16153;SDS011;8182;55.648;13.208;2024-03-29T07:13:23;3.57;;;2.30;;
16153;SDS011;8182;55.648;13.208;2024-03-29T07:15:52;3.30;;;2.10;;
16153;SDS011;8182;55.648;13.208;2024-03-29T07:18:19;3.77;;;2.00;;
16153;SDS011;8182;55.648;13.208;2024-03-29T07:20:46;4.07;;;2.47;;
16153;SDS011;8182;55.648;13.208;2024-03-29T07:23:13;3.37;;;1.93;;
16153;SDS011;8182;55.648;13.208;2024-03-29T07:25:40;3.83;;;2.20;;
16153;SDS011;8182;55.648;13.208;2024-03-29T07:28:06;4.00;;;2.10;;
16153;SDS011;8182;55.648;13.208;2024-03-29T07:30:34;3.50;;;2.00;;
16153;SDS011;8182;55.648;13.208;2024-03-29T07:33:04;4.03;;;2.37;;
16153;SDS011;8182;55.648;13.208;2024-03-29T07:35:31;3.03;;;1.80;;
16153;SDS011;8182;55.648;13.208;2024-03-29T07:37:58;3.87;;;1.80;;
16153;SDS011;8182;55.648;13.208;2024-03-29T07:40:25;3.13;;;1.77;;
16153;SDS011;8182;55.648;13.208;2024-03-29T07:42:52;4.70;;;2.23;;
16153;SDS011;8182;55.648;13.208;2024-03-29T07:45:18;1.80;;;1.60;;
16153;SDS011;8182;55.648;13.208;2024-03-29T07:47:45;3.57;;;1.87;;
16153;SDS011;8182;55.648;13.208;2024-03-29T07:50:19;4.83;;;1.80;;
16153;SDS011;8182;55.648;13.208;2024-03-29T07:52:46;4.23;;;1.80;;
16153;SDS011;8182;55.648;13.208;2024-03-29T07:55:13;4.63;;;1.70;;
16153;SDS011;8182;55.648;13.208;2024-03-29T07:57:40;3.50;;;1.60;;
16153;SDS011;8182;55.648;13.208;2024-03-29T08:00:07;4.80;;;1.77;;
16153;SDS011;8182;55.648;13.208;2024-03-29T08:02:35;4.17;;;1.70;;
16153;SDS011;8182;55.648;13.208;2024-03-29T08:05:03;3.60;;;1.60;;
16153;SDS011;8182;55.648;13.208;2024-03-29T08:07:32;4.60;;;1.70;;
16153;SDS011;8182;55.648;13.208;2024-03-29T08:09:59;6.53;;;1.67;;
16153;SDS011;8182;55.648;13.208;2024-03-29T08:12:26;3.00;;;1.50;;
16153;SDS011;8182;55.648;13.208;2024-03-29T08:14:53;2.53;;;1.67;;
16153;SDS011;8182;55.648;13.208;2024-03-29T08:17:20;4.20;;;1.67;;
16153;SDS011;8182;55.648;13.208;2024-03-29T08:19:46;4.27;;;1.60;;
16153;SDS011;8182;55.648;13.208;2024-03-29T08:22:13;2.77;;;1.50;;
16153;SDS011;8182;55.648;13.208;2024-03-29T08:24:42;3.40;;;1.80;;
16153;SDS011;8182;55.648;13.208;2024-03-29T08:27:09;2.70;;;1.63;;
16153;SDS011;8182;55.648;13.208;2024-03-29T08:29:36;3.60;;;1.40;;
16153;SDS011;8182;55.648;13.208;2024-03-29T08:32:03;3.97;;;1.47;;
16153;SDS011;8182;55.648;13.208;2024-03-29T08:34:32;4.80;;;1.37;;
16153;SDS011;8182;55.648;13.208;2024-03-29T08:37:00;5.23;;;1.80;;
16153;SDS011;8182;55.648;13.208;2024-03-29T08:39:28;5.07;;;1.63;;
16153;SDS011;8182;55.648;13.208;2024-03-29T08:41:56;4.03;;;1.63;;
16153;SDS011;8182;55.648;13.208;2024-03-29T08:44:23;3.73;;;1.40;;
16153;SDS011;8182;55.648;13.208;2024-03-29T08:46:50;3.73;;;1.40;;
16153;SDS011;8182;55.648;13.208;2024-03-29T08:49:17;2.73;;;1.60;;
16153;SDS011;8182;55.648;13.208;2024-03-29T08:51:44;5.40;;;1.50;;
16153;SDS011;8182;55.648;13.208;2024-03-29T08:54:11;4.73;;;1.50;;
16153;SDS011;8182;55.648;13.208;2024-03-29T08:56:38;4.60;;;1.60;;
16153;SDS011;8182;55.648;13.208;2024-03-29T08:59:07;2.67;;;1.37;;
16153;SDS011;8182;55.648;13.208;2024-03-29T09:01:35;3.90;;;1.40;;
16153;SDS011;8182;55.648;13.208;2024-03-29T09:04:03;2.73;;;1.40;;
16153;SDS011;8182;55.648;13.208;2024-03-29T09:06:33;3.63;;;1.60;;
16153;SDS011;8182;55.648;13.208;2024-03-29T09:08:59;3.03;;;1.50;;
16153;SDS011;8182;55.648;13.208;2024-03-29T09:11:28;4.03;;;1.53;;
16153;SDS011;8182;55.648;13.208;2024-03-29T09:13:54;4.07;;;1.57;;
16153;SDS011;8182;55.648;13.208;2024-03-29T09:16:24;5.87;;;2.30;;
16153;SDS011;8182;55.648;13.208;2024-03-29T09:18:54;3.03;;;1.47;;
16153;SDS011;8182;55.648;13.208;2024-03-29T09:21:21;5.67;;;1.47;;
16153;SDS011;8182;55.648;13.208;2024-03-29T09:23:48;3.93;;;1.53;;
16153;SDS011;8182;55.648;13.208;2024-03-29T09:26:17;2.60;;;1.50;;
16153;SDS011;8182;55.648;13.208;2024-03-29T09:28:44;3.87;;;1.40;;
16153;SDS011;8182;55.648;13.208;2024-03-29T09:31:11;2.47;;;1.40;;
16153;SDS011;8182;55.648;13.208;2024-03-29T09:33:39;5.40;;;1.30;;
16153;SDS011;8182;55.648;13.208;2024-03-29T09:36:07;4.77;;;1.40;;
16153;SDS011;8182;55.648;13.208;2024-03-29T09:38:36;3.90;;;1.50;;
16153;SDS011;8182;55.648;13.208;2024-03-29T09:41:05;3.87;;;1.27;;
16153;SDS011;8182;55.648;13.208;2024-03-29T09:43:38;3.77;;;1.40;;
16153;SDS011;8182;55.648;13.208;2024-03-29T09:46:06;3.37;;;1.50;;
16153;SDS011;8182;55.648;13.208;2024-03-29T09:48:34;3.10;;;1.47;;
16153;SDS011;8182;55.648;13.208;2024-03-29T09:51:05;3.70;;;1.63;;
16153;SDS011;8182;55.648;13.208;2024-03-29T09:53:34;5.10;;;1.53;;
16153;SDS011;8182;55.648;13.208;2024-03-29T09:56:02;2.37;;;1.30;;
16153;SDS011;8182;55.648;13.208;2024-03-29T09:58:30;3.53;;;1.30;;
16153;SDS011;8182;55.648;13.208;2024-03-29T10:00:57;3.13;;;1.30;;
16153;SDS011;8182;55.648;13.208;2024-03-29T10:03:24;4.13;;;1.47;;
16153;SDS011;8182;55.648;13.208;2024-03-29T10:05:54;5.70;;;1.53;;
16153;SDS011;8182;55.648;13.208;2024-03-29T10:08:23;4.57;;;1.60;;
16153;SDS011;8182;55.648;13.208;2024-03-29T10:10:52;5.07;;;1.60;;
16153;SDS011;8182;55.648;13.208;2024-03-29T10:13:21;3.50;;;1.43;;
16153;SDS011;8182;55.648;13.208;2024-03-29T10:15:48;5.17;;;1.50;;
16153;SDS011;8182;55.648;13.208;2024-03-29T10:18:17;2.87;;;1.40;;
16153;SDS011;8182;55.648;13.208;2024-03-29T10:20:45;3.40;;;1.30;;
16153;SDS011;8182;55.648;13.208;2024-03-29T10:23:12;4.00;;;1.40;;
16153;SDS011;8182;55.648;13.208;2024-03-29T10:25:42;3.40;;;1.70;;
16153;SDS011;8182;55.648;13.208;2024-03-29T10:28:09;3.90;;;1.30;;
16153;SDS011;8182;55.648;13.208;2024-03-29T10:30:37;3.30;;;1.47;;
16153;SDS011;8182;55.648;13.208;2024-03-29T10:33:05;3.50;;;1.80;;
16153;SDS011;8182;55.648;13.208;2024-03-29T10:35:31;5.17;;;1.57;;
16153;SDS011;8182;55.648;13.208;2024-03-29T10:38:01;3.50;;;1.53;;
16153;SDS011;8182;55.648;13.208;2024-03-29T10:40:28;4.90;;;1.80;;
16153;SDS011;8182;55.648;13.208;2024-03-29T10:42:57;2.60;;;1.40;;
16153;SDS011;8182;55.648;13.208;2024-03-29T10:45:29;3.17;;;1.53;;
16153;SDS011;8182;55.648;13.208;2024-03-29T10:47:56;4.57;;;1.40;;
16153;SDS011;8182;55.648;13.208;2024-03-29T10:50:24;3.93;;;1.50;;
16153;SDS011;8182;55.648;13.208;2024-03-29T10:52:54;3.20;;;1.63;;
16153;SDS011;8182;55.648;13.208;2024-03-29T10:55:26;3.83;;;1.40;;
16153;SDS011;8182;55.648;13.208;2024-03-29T10:57:55;3.67;;;1.57;;
16153;SDS011;8182;55.648;13.208;2024-03-29T11:00:24;3.90;;;1.63;;
16153;SDS011;8182;55.648;13.208;2024-03-29T11:02:55;3.83;;;1.50;;
16153;SDS011;8182;55.648;13.208;2024-03-29T11:05:29;3.80;;;1.50;;
16153;SDS011;8182;55.648;13.208;2024-03-29T11:07:57;4.37;;;1.70;;
16153;SDS011;8182;55.648;13.208;2024-03-29T11:10:25;3.47;;;1.47;;
16153;SDS011;8182;55.648;13.208;2024-03-29T11:13:01;3.70;;;1.57;;
16153;SDS011;8182;55.648;13.208;2024-03-29T11:15:36;3.17;;;1.50;;
16153;SDS011;8182;55.648;13.208;2024-03-29T11:18:06;5.17;;;1.60;;
16153;SDS011;8182;55.648;13.208;2024-03-29T11:20:34;4.23;;;1.60;;
16153;SDS011;8182;55.648;13.208;2024-03-29T11:23:03;3.30;;;1.47;;
16153;SDS011;8182;55.648;13.208;2024-03-29T11:25:38;5.83;;;1.80;;
16153;SDS011;8182;55.648;13.208;2024-03-29T11:28:06;3.80;;;1.67;;
16153;SDS011;8182;55.648;13.208;2024-03-29T11:30:39;3.50;;;1.50;;
16153;SDS011;8182;55.648;13.208;2024-03-29T11:33:07;3.30;;;1.70;;
16153;SDS011;8182;55.648;13.208;2024-03-29T11:35:39;2.80;;;1.80;;
16153;SDS011;8182;55.648;13.208;2024-03-29T11:38:06;3.20;;;1.70;;
16153;SDS011;8182;55.648;13.208;2024-03-29T11:40:33;2.60;;;1.60;;
16153;SDS011;8182;55.648;13.208;2024-03-29T11:43:00;3.43;;;1.50;;
16153;SDS011;8182;55.648;13.208;2024-03-29T11:45:30;6.27;;;2.97;;
16153;SDS011;8182;55.648;13.208;2024-03-29T11:47:59;7.13;;;3.53;;
16153;SDS011;8182;55.648;13.208;2024-03-29T11:50:32;5.57;;;2.50;;
16153;SDS011;8182;55.648;13.208;2024-03-29T11:53:01;7.03;;;4.00;;
16153;SDS011;8182;55.648;13.208;2024-03-29T11:55:28;3.80;;;1.60;;
16153;SDS011;8182;55.648;13.208;2024-03-29T11:57:56;5.03;;;1.90;;
16153;SDS011;8182;55.648;13.208;2024-03-29T12:00:23;2.70;;;1.60;;
16153;SDS011;8182;55.648;13.208;2024-03-29T12:02:56;4.27;;;1.93;;
16153;SDS011;8182;55.648;13.208;2024-03-29T12:05:23;4.17;;;1.70;;
16153;SDS011;8182;55.648;13.208;2024-03-29T12:07:50;4.30;;;2.10;;
16153;SDS011;8182;55.648;13.208;2024-03-29T12:10:18;3.17;;;1.60;;
16153;SDS011;8182;55.648;13.208;2024-03-29T12:12:45;3.63;;;1.80;;
16153;SDS011;8182;55.648;13.208;2024-03-29T12:15:12;3.07;;;1.80;;
16153;SDS011;8182;55.648;13.208;2024-03-29T12:17:40;4.87;;;2.10;;
16153;SDS011;8182;55.648;13.208;2024-03-29T12:20:09;3.13;;;1.90;;
16153;SDS011;8182;55.648;13.208;2024-03-29T12:22:37;4.37;;;2.10;;
16153;SDS011;8182;55.648;13.208;2024-03-29T12:25:05;6.90;;;2.00;;
16153;SDS011;8182;55.648;13.208;2024-03-29T12:27:32;8.70;;;2.10;;
16153;SDS011;8182;55.648;13.208;2024-03-29T12:29:58;6.33;;;2.00;;
16153;SDS011;8182;55.648;13.208;2024-03-29T12:32:25;3.70;;;1.90;;
16153;SDS011;8182;55.648;13.208;2024-03-29T12:34:52;6.27;;;2.20;;
16153;SDS011;8182;55.648;13.208;2024-03-29T12:37:22;6.13;;;1.90;;
16153;SDS011;8182;55.648;13.208;2024-03-29T12:39:51;4.67;;;1.90;;
16153;SDS011;8182;55.648;13.208;2024-03-29T12:42:21;5.03;;;2.00;;
16153;SDS011;8182;55.648;13.208;2024-03-29T12:44:47;6.53;;;2.13;;
16153;SDS011;8182;55.648;13.208;2024-03-29T12:47:14;8.00;;;2.10;;
16153;SDS011;8182;55.648;13.208;2024-03-29T12:49:41;3.93;;;2.27;;
16153;SDS011;8182;55.648;13.208;2024-03-29T12:52:09;6.10;;;2.40;;
16153;SDS011;8182;55.648;13.208;2024-03-29T12:54:38;5.33;;;2.00;;
16153;SDS011;8182;55.648;13.208;2024-03-29T12:57:05;4.77;;;2.10;;
16153;SDS011;8182;55.648;13.208;2024-03-29T12:59:33;6.13;;;2.17;;
16153;SDS011;8182;55.648;13.208;2024-03-29T13:02:00;4.50;;;1.80;;
16153;SDS011;8182;55.648;13.208;2024-03-29T13:04:29;4.50;;;2.17;;
16153;SDS011;8182;55.648;13.208;2024-03-29T13:06:56;4.17;;;1.77;;
16153;SDS011;8182;55.648;13.208;2024-03-29T13:09:22;4.03;;;1.77;;
16153;SDS011;8182;55.648;13.208;2024-03-29T13:11:51;3.43;;;2.00;;
16153;SDS011;8182;55.648;13.208;2024-03-29T13:14:17;2.73;;;1.80;;
16153;SDS011;8182;55.648;13.208;2024-03-29T13:16:44;3.10;;;2.00;;
16153;SDS011;8182;55.648;13.208;2024-03-29T13:19:11;3.33;;;1.60;;
16153;SDS011;8182;55.648;13.208;2024-03-29T13:21:38;4.67;;;1.70;;
16153;SDS011;8182;55.648;13.208;2024-03-29T13:24:05;3.60;;;2.00;;
16153;SDS011;8182;55.648;13.208;2024-03-29T13:26:32;4.37;;;2.23;;
16153;SDS011;8182;55.648;13.208;2024-03-29T13:29:00;4.97;;;2.03;;
16153;SDS011;8182;55.648;13.208;2024-03-29T13:31:27;2.97;;;1.93;;
16153;SDS011;8182;55.648;13.208;2024-03-29T13:33:55;4.33;;;2.13;;
16153;SDS011;8182;55.648;13.208;2024-03-29T13:36:29;5.83;;;1.80;;
16153;SDS011;8182;55.648;13.208;2024-03-29T13:38:56;3.53;;;1.90;;
16153;SDS011;8182;55.648;13.208;2024-03-29T13:41:23;3.70;;;1.87;;
16153;SDS011;8182;55.648;13.208;2024-03-29T13:43:51;4.40;;;1.93;;
16153;SDS011;8182;55.648;13.208;2024-03-29T13:46:19;3.13;;;2.00;;
16153;SDS011;8182;55.648;13.208;2024-03-29T13:48:46;5.73;;;2.40;;
16153;SDS011;8182;55.648;13.208;2024-03-29T13:51:13;4.80;;;1.90;;
16153;SDS011;8182;55.648;13.208;2024-03-29T13:53:41;3.03;;;1.80;;
16153;SDS011;8182;55.648;13.208;2024-03-29T13:56:08;3.23;;;1.70;;
16153;SDS011;8182;55.648;13.208;2024-03-29T13:58:35;4.40;;;1.93;;
16153;SDS011;8182;55.648;13.208;2024-03-29T14:01:02;3.47;;;1.90;;
16153;SDS011;8182;55.648;13.208;2024-03-29T14:03:30;6.83;;;2.13;;
16153;SDS011;8182;55.648;13.208;2024-03-29T14:05:57;4.23;;;1.70;;
16153;SDS011;8182;55.648;13.208;2024-03-29T14:08:24;5.60;;;2.03;;
16153;SDS011;8182;55.648;13.208;2024-03-29T14:10:51;5.23;;;2.00;;
16153;SDS011;8182;55.648;13.208;2024-03-29T14:13:18;3.60;;;1.90;;
16153;SDS011;8182;55.648;13.208;2024-03-29T14:15:45;2.70;;;1.70;;
16153;SDS011;8182;55.648;13.208;2024-03-29T14:18:12;2.87;;;1.83;;
16153;SDS011;8182;55.648;13.208;2024-03-29T14:20:40;4.93;;;1.93;;
16153;SDS011;8182;55.648;13.208;2024-03-29T14:23:07;5.90;;;2.23;;
16153;SDS011;8182;55.648;13.208;2024-03-29T14:25:37;3.53;;;2.00;;
16153;SDS011;8182;55.648;13.208;2024-03-29T14:28:05;5.53;;;2.20;;
